createdAt,value
2019-04-25T00:00:01.999Z,8.43
2019-04-25T00:05:03.035Z,8.29
2019-04-25T00:10:01.656Z,8.17
2019-04-25T00:15:01.857Z,8.29
2019-04-25T00:20:02.006Z,8.02
2019-04-25T00:25:14.705Z,8.12
2019-04-25T00:30:01.801Z,8.21
2019-04-25T00:35:02.132Z,8.22
2019-04-25T00:40:01.632Z,8.32
2019-04-25T00:45:02.353Z,8.35
2019-04-25T00:50:02.339Z,8.23
2019-04-25T00:55:02.056Z,8.44
2019-04-25T01:00:01.872Z,8.34
2019-04-25T01:05:01.854Z,8.34
2019-04-25T01:10:02.434Z,8.35
2019-04-25T01:15:01.987Z,8.42
2019-04-25T01:20:01.308Z,8.42
2019-04-25T01:25:01.721Z,8.47
2019-04-25T01:30:02.131Z,8.45
2019-04-25T01:35:01.250Z,8.56
2019-04-25T01:40:01.371Z,8.62
2019-04-25T01:45:01.497Z,8.64
2019-04-25T01:50:01.685Z,8.63
2019-04-25T01:55:03.517Z,8.65
2019-04-25T02:00:01.944Z,8.62
2019-04-25T02:05:01.734Z,8.57
2019-04-25T02:10:03.631Z,8.55
2019-04-25T02:15:03.943Z,8.53
2019-04-25T02:20:02.095Z,8.46
2019-04-25T02:25:01.243Z,8.37
2019-04-25T02:30:01.436Z,8.35
2019-04-25T02:35:07.900Z,8.32
2019-04-25T02:40:03.903Z,8.3
2019-04-25T02:45:03.166Z,8.29
2019-04-25T02:50:03.480Z,8.28
2019-04-25T02:55:02.202Z,8.22
2019-04-25T03:00:02.708Z,8.2
2019-04-25T03:05:03.988Z,8.2
2019-04-25T03:10:02.042Z,8.23
2019-04-25T03:15:02.083Z,8.24
2019-04-25T03:20:06.627Z,8.22
2019-04-25T03:25:02.229Z,8.2
2019-04-25T03:30:02.040Z,8.18
2019-04-25T03:35:01.327Z,8.12
2019-04-25T03:40:02.650Z,8.11
2019-04-25T03:45:01.592Z,8.04
2019-04-25T03:50:02.770Z,8.02
2019-04-25T03:55:02.242Z,8.03
2019-04-25T04:00:03.603Z,8.04
2019-04-25T04:05:01.418Z,8.16
2019-04-25T04:10:03.541Z,8.22
2019-04-25T04:15:01.666Z,8.34
2019-04-25T04:20:01.796Z,8.45
2019-04-25T04:25:03.671Z,8.5
2019-04-25T04:30:01.937Z,8.48
2019-04-25T04:35:03.487Z,8.48
2019-04-25T04:40:03.418Z,8.59
2019-04-25T04:45:03.548Z,8.6
2019-04-25T04:50:01.787Z,8.63
2019-04-25T04:55:06.313Z,8.79
2019-04-25T05:00:01.383Z,8.91
2019-04-25T05:05:01.551Z,9.12
2019-04-25T05:10:03.215Z,9.22
2019-04-25T05:15:01.483Z,9.24
2019-04-25T05:20:03.444Z,9.2
2019-04-25T05:25:01.610Z,9.08
2019-04-25T05:30:01.787Z,9.07
2019-04-25T05:35:03.392Z,9.04
2019-04-25T05:40:01.557Z,9.18
2019-04-25T05:45:01.684Z,9.42
2019-04-25T05:50:01.862Z,9.74
2019-04-25T05:55:01.988Z,9.96
2019-04-25T06:00:03.639Z,10
2019-04-25T06:05:03.511Z,10.08
2019-04-25T06:09:24.033Z,10.4
2019-04-25T06:10:01.717Z,10.4
2019-04-25T06:15:02.994Z,10.68
2019-04-25T06:16:15.135Z,10.7
2019-04-25T06:16:50.519Z,10.7
2019-04-25T06:17:30.110Z,10.75
2019-04-25T06:21:43.567Z,10.93
2019-04-25T06:25:01.683Z,11.19
2019-04-25T06:25:01.755Z,11.19
2019-04-25T06:25:01.834Z,11.19
2019-04-25T06:25:01.914Z,11.19
2019-04-25T06:25:02.028Z,11.19
2019-04-25T06:25:02.124Z,11.19
2019-04-25T06:25:34.272Z,11.25
2019-04-25T06:26:48.893Z,11.27
2019-04-25T06:27:03.842Z,11.27
2019-04-25T06:30:01.649Z,11
2019-04-25T06:35:01.806Z,10.83
2019-04-25T06:40:03.445Z,10.85
2019-04-25T06:45:01.183Z,10.85
2019-04-25T06:46:43.985Z,10.85
2019-04-25T06:47:10.720Z,10.85
2019-04-25T06:50:01.356Z,10.9
2019-04-25T06:51:34.384Z,10.9
2019-04-25T06:51:44.050Z,10.9
2019-04-25T06:51:55.855Z,10.93
2019-04-25T06:51:59.792Z,10.93
2019-04-25T06:55:03.303Z,10.95
2019-04-25T07:00:01.507Z,10.97
2019-04-25T07:00:09.082Z,10.97
2019-04-25T07:05:01.627Z,10.86
2019-04-25T07:10:03.516Z,11.16
2019-04-25T07:15:01.744Z,11.49
2019-04-25T07:20:01.914Z,11.68
2019-04-25T07:25:03.561Z,11.9
2019-04-25T07:30:01.768Z,12.18
2019-04-25T07:35:03.475Z,12.51
2019-04-25T07:40:01.848Z,12.38
2019-04-25T07:45:01.998Z,12.21
2019-04-25T07:50:01.158Z,12.25
2019-04-25T07:55:01.300Z,12.25
2019-04-25T08:00:03.237Z,12.4
2019-04-25T08:05:01.833Z,12.56
2019-04-25T08:10:01.964Z,12.73
2019-04-25T08:15:03.917Z,12.95
2019-04-25T08:20:01.270Z,13.3
2019-04-25T08:25:01.400Z,14.56
2019-04-25T08:30:01.502Z,14.44
2019-04-25T08:35:01.643Z,14.14
2019-04-25T08:40:01.827Z,14.52
2019-04-25T08:45:03.654Z,15.54
2019-04-25T08:50:03.529Z,16.26
2019-04-25T08:55:01.824Z,16.74
2019-04-25T09:00:01.949Z,16.69
2019-04-25T09:05:02.052Z,16.85
2019-04-25T09:10:03.657Z,16.52
2019-04-25T09:15:01.807Z,16.08
2019-04-25T09:20:02.007Z,16.16
2019-04-25T09:25:01.154Z,16
2019-04-25T09:30:01.287Z,16.28
2019-04-25T09:35:01.427Z,16.1
2019-04-25T09:40:01.606Z,16.05
2019-04-25T09:45:03.644Z,15.87
2019-04-25T09:50:01.896Z,15.77
2019-04-25T09:55:03.406Z,15.97
2019-04-25T10:00:03.518Z,16.27
2019-04-25T10:05:01.822Z,16.66
2019-04-25T10:10:03.649Z,17.63
2019-04-25T10:15:01.909Z,17.89
2019-04-25T10:20:02.070Z,17.51
2019-04-25T10:25:01.225Z,17.58
2019-04-25T10:30:14.578Z,17.65
2019-04-25T10:35:01.639Z,18.24
2019-04-25T10:40:01.794Z,18.1
2019-04-25T10:45:04.044Z,17.39
2019-04-25T10:50:01.336Z,17.58
2019-04-25T10:55:01.469Z,17.76
2019-04-25T11:00:07.524Z,18.27
2019-04-25T11:05:03.403Z,18.5
2019-04-25T11:10:03.434Z,18.35
2019-04-25T11:15:01.747Z,18.61
2019-04-25T11:20:03.653Z,18.91
2019-04-25T11:25:01.598Z,18.87
2019-04-25T11:30:10.477Z,18.7
2019-04-25T11:35:01.387Z,18.51
2019-04-25T11:40:01.577Z,18.52
2019-04-25T11:45:02.638Z,18.49
2019-04-25T11:50:01.172Z,18.69
2019-04-25T11:55:01.326Z,18.92
2019-04-25T12:00:01.503Z,18.53
2019-04-25T12:05:01.664Z,18.46
2019-04-25T12:10:03.614Z,18.49
2019-04-25T12:15:01.927Z,18.44
2019-04-25T12:20:03.738Z,18.49
2019-04-25T12:25:01.949Z,18.44
2019-04-25T12:30:03.863Z,18.43
2019-04-25T12:35:01.525Z,18.62
2019-04-25T12:40:04.061Z,18.77
2019-04-25T12:45:01.507Z,18.88
2019-04-25T12:50:01.624Z,19.11
2019-04-25T12:55:01.995Z,19.37
2019-04-25T13:00:01.705Z,19.46
2019-04-25T13:05:01.845Z,19.41
2019-04-25T13:10:01.952Z,19.45
2019-04-25T13:15:02.137Z,19.41
2019-04-25T13:20:01.708Z,19.53
2019-04-25T13:25:03.172Z,19.84
2019-04-25T13:30:01.453Z,19.98
2019-04-25T13:35:03.214Z,20.15
2019-04-25T13:40:01.976Z,20.02
2019-04-25T13:45:03.135Z,20.02
2019-04-25T13:50:01.694Z,19.92
2019-04-25T13:55:03.687Z,20.04
2019-04-25T14:00:01.940Z,20.53
2019-04-25T14:05:03.576Z,20.58
2019-04-25T14:10:01.306Z,20.47
2019-04-25T14:15:01.506Z,20.29
2019-04-25T14:20:01.606Z,20.21
2019-04-25T14:25:01.706Z,20.16
2019-04-25T14:30:03.747Z,20.11
2019-04-25T14:35:03.416Z,20.09
2019-04-25T14:40:01.629Z,20.1
2019-04-25T14:45:01.767Z,20.12
2019-04-25T14:50:01.934Z,20.12
2019-04-25T14:55:02.056Z,20.13
2019-04-25T15:00:04.434Z,20.06
2019-04-25T15:05:01.796Z,20.07
2019-04-25T15:10:01.895Z,20.17
2019-04-25T15:15:02.017Z,20.21
2019-04-25T15:20:01.158Z,20.17
2019-04-25T15:25:01.292Z,20.11
2019-04-25T15:30:01.438Z,20.04
2019-04-25T15:35:01.640Z,19.98
2019-04-25T15:40:01.745Z,19.8
2019-04-25T15:45:01.886Z,19.71
2019-04-25T15:50:02.030Z,19.61
2019-04-25T15:55:07.266Z,19.37
2019-04-25T16:00:02.023Z,19.25
2019-04-25T16:05:01.197Z,19.18
2019-04-25T16:10:01.334Z,19.08
2019-04-25T16:15:01.523Z,19
2019-04-25T16:20:01.663Z,18.87
2019-04-25T16:25:01.761Z,18.87
2019-04-25T16:30:01.898Z,18.79
2019-04-25T16:35:02.118Z,18.37
2019-04-25T16:40:01.261Z,18.15
2019-04-25T16:45:01.389Z,17.84
2019-04-25T16:50:01.526Z,17.63
2019-04-25T16:55:01.771Z,17.38
2019-04-25T17:00:01.914Z,17.16
2019-04-25T17:05:02.063Z,16.95
2019-04-25T17:10:01.181Z,16.75
2019-04-25T17:15:01.368Z,16.6
2019-04-25T17:20:01.487Z,16.44
2019-04-25T17:25:01.626Z,16.34
2019-04-25T17:30:01.755Z,16.14
2019-04-25T17:35:01.970Z,15.98
2019-04-25T17:40:02.103Z,15.85
2019-04-25T17:45:01.195Z,15.69
2019-04-25T17:50:01.317Z,15.59
2019-04-25T17:55:01.475Z,15.49
2019-04-25T18:00:01.608Z,15.31
2019-04-25T18:05:01.736Z,15.15
2019-04-25T18:10:01.865Z,14.97
2019-04-25T18:15:02.004Z,14.85
2019-04-25T18:20:01.149Z,14.74
2019-04-25T18:25:01.282Z,14.62
2019-04-25T18:30:01.378Z,14.48
2019-04-25T18:35:01.583Z,14.29
2019-04-25T18:40:01.711Z,14.25
2019-04-25T18:45:01.843Z,14.14
2019-04-25T18:50:01.960Z,14.05
2019-04-25T18:55:02.146Z,13.98
2019-04-25T19:00:01.242Z,13.89
2019-04-25T19:05:01.353Z,13.83
2019-04-25T19:10:01.450Z,13.69
2019-04-25T19:15:01.638Z,13.63
2019-04-25T19:20:01.799Z,13.55
2019-04-25T19:25:01.898Z,13.56
2019-04-25T19:30:02.029Z,13.52
2019-04-25T19:35:01.201Z,13.41
2019-04-25T19:40:01.327Z,13.4
2019-04-25T19:45:01.469Z,13.35
2019-04-25T19:50:01.641Z,13.3
2019-04-25T19:55:01.791Z,13.3
2019-04-25T20:00:01.931Z,13.24
2019-04-25T20:05:02.071Z,13.31
2019-04-25T20:10:01.243Z,13.29
2019-04-25T20:15:01.654Z,13.32
2019-04-25T20:20:01.795Z,13.32
2019-04-25T20:25:01.890Z,13.37
2019-04-25T20:30:02.034Z,13.35
2019-04-25T20:35:01.262Z,13.27
2019-04-25T20:40:01.394Z,13.25
2019-04-25T20:45:01.564Z,13.26
2019-04-25T20:50:01.696Z,13.24
2019-04-25T20:55:01.919Z,13.18
2019-04-25T21:00:02.053Z,13.11
2019-04-25T21:05:01.206Z,13.04
2019-04-25T21:10:01.338Z,13.02
2019-04-25T21:15:01.496Z,12.99
2019-04-25T21:20:02.877Z,12.91
2019-04-25T21:25:02.375Z,12.78
2019-04-25T21:30:02.352Z,12.72
2019-04-25T21:35:01.580Z,12.69
2019-04-25T21:40:02.888Z,12.63
2019-04-25T21:45:01.189Z,12.62
2019-04-25T21:50:01.338Z,12.56
2019-04-25T21:55:01.822Z,12.45
2019-04-25T22:00:06.132Z,12.38
2019-04-25T22:05:01.207Z,12.28
2019-04-25T22:10:01.963Z,12.26
2019-04-25T22:15:02.104Z,12.18
2019-04-25T22:20:02.240Z,12.11
2019-04-25T22:25:02.605Z,12.01
2019-04-25T22:30:01.831Z,11.93
2019-04-25T22:35:01.760Z,11.88
2019-04-25T22:40:01.945Z,11.77
2019-04-25T22:45:02.069Z,11.73
2019-04-25T22:50:01.849Z,11.73
2019-04-25T22:55:02.209Z,11.76
2019-04-25T23:00:02.344Z,11.7
2019-04-25T23:05:09.163Z,11.7
2019-04-25T23:10:01.963Z,11.7
2019-04-25T23:15:01.212Z,11.66
2019-04-25T23:20:01.346Z,11.57
2019-04-25T23:25:01.444Z,11.51
2019-04-25T23:30:01.581Z,11.48
2019-04-25T23:35:02.013Z,11.42
2019-04-25T23:40:01.271Z,11.34
2019-04-25T23:45:01.405Z,11.29
2019-04-25T23:50:01.546Z,11.22
2019-04-25T23:55:01.707Z,11.16
